Time;durP1;ratioP1;P1;durP2;ratioP2;P2;SDS_P1;SDS_P2;PMS_P1;PMS_P2;Temp;Humidity;BMP_temperature;BMP_pressure;BME280_temperature;BME280_humidity;BME280_pressure;Samples;Min_cycle;Max_cycle;Signal;HPM_P1;HPM_P2
2021/01/15 00:01:22;;;;;;;10.40;7.10;;;;;;;;;;5011816;28;20041;-72
2021/01/15 00:03:49;;;;;;;8.13;6.25;;;;;;;;;;5013447;28;20018;-72
2021/01/15 00:06:19;;;;;;;6.82;5.97;;;;;;;;;;5012611;28;20367;-72
2021/01/15 00:08:45;;;;;;;8.05;6.75;;;;;;;;;;5013517;28;20025;-72
2021/01/15 00:11:24;;;;;;;8.50;6.05;;;;;;;;;;5013512;28;20051;-72
2021/01/15 00:13:50;;;;;;;7.72;6.18;;;;;;;;;;5013521;28;20026;-72
2021/01/15 00:16:19;;;;;;;7.30;6.28;;;;;;;;;;5013497;28;20033;-72
2021/01/15 00:18:45;;;;;;;8.00;6.55;;;;;;;;;;5013502;28;20033;-72
2021/01/15 00:21:17;;;;;;;8.02;6.22;;;;;;;;;;5013563;28;20068;-72
2021/01/15 00:23:43;;;;;;;7.70;6.40;;;;;;;;;;5013669;28;20148;-72
2021/01/15 00:26:18;;;;;;;9.30;7.53;;;;;;;;;;5013521;28;20049;-72
2021/01/15 00:28:44;;;;;;;9.77;7.43;;;;;;;;;;5013509;28;20038;-72
2021/01/15 00:31:10;;;;;;;9.77;7.10;;;;;;;;;;5013607;28;20033;-73
2021/01/15 00:33:35;;;;;;;9.93;7.68;;;;;;;;;;5013588;28;20092;-73
2021/01/15 00:36:01;;;;;;;9.43;7.20;;;;;;;;;;5013123;28;20046;-73
2021/01/15 00:38:27;;;;;;;10.05;6.85;;;;;;;;;;5013330;28;20068;-72
2021/01/15 00:41:08;;;;;;;8.75;7.00;;;;;;;;;;5013336;28;20022;-72
2021/01/15 00:43:40;;;;;;;9.00;7.38;;;;;;;;;;5013103;28;20084;-72
2021/01/15 00:46:07;;;;;;;9.75;7.28;;;;;;;;;;5011698;28;20442;-72
2021/01/15 00:48:36;;;;;;;11.70;7.30;;;;;;;;;;5013305;28;20022;-73
2021/01/15 00:51:11;;;;;;;10.98;7.50;;;;;;;;;;5012157;28;20150;-73
2021/01/15 00:53:37;;;;;;;11.32;8.05;;;;;;;;;;5015312;28;20040;-72
2021/01/15 00:56:03;;;;;;;9.15;7.03;;;;;;;;;;5016863;28;20022;-72
2021/01/15 00:58:28;;;;;;;11.10;8.15;;;;;;;;;;5016827;28;20105;-72
2021/01/15 01:00:54;;;;;;;11.98;8.95;;;;;;;;;;5015061;28;20369;-72
2021/01/15 01:03:32;;;;;;;14.75;9.57;;;;;;;;;;5015316;28;20052;-72
2021/01/15 01:05:57;;;;;;;13.40;9.48;;;;;;;;;;5016507;28;20458;-72
2021/01/15 01:08:23;;;;;;;13.73;9.93;;;;;;;;;;5015442;28;20030;-73
2021/01/15 01:10:48;;;;;;;13.05;9.60;;;;;;;;;;5016659;28;20096;-72
2021/01/15 01:13:14;;;;;;;15.93;9.88;;;;;;;;;;5015199;28;20029;-72
2021/01/15 01:15:39;;;;;;;12.65;9.40;;;;;;;;;;5016290;28;20127;-72
2021/01/15 01:18:05;;;;;;;15.57;10.25;;;;;;;;;;5016128;28;20014;-72
2021/01/15 01:20:31;;;;;;;14.88;9.80;;;;;;;;;;5016040;28;20028;-72
2021/01/15 01:22:56;;;;;;;13.32;9.52;;;;;;;;;;5016271;28;20017;-71
2021/01/15 01:25:22;;;;;;;15.32;9.98;;;;;;;;;;5016301;28;20041;-71
2021/01/15 01:27:48;;;;;;;15.63;10.05;;;;;;;;;;5014890;28;20018;-71
2021/01/15 01:30:14;;;;;;;17.77;10.63;;;;;;;;;;5016237;28;20065;-71
2021/01/15 01:32:40;;;;;;;13.90;9.90;;;;;;;;;;5015126;28;20022;-72
2021/01/15 01:35:07;;;;;;;15.25;10.20;;;;;;;;;;5014674;28;20033;-72
2021/01/15 01:37:32;;;;;;;14.35;10.00;;;;;;;;;;5015830;28;20148;-72
2021/01/15 01:39:58;;;;;;;17.10;10.35;;;;;;;;;;5015846;28;20120;-72
2021/01/15 01:42:23;;;;;;;17.98;9.90;;;;;;;;;;5016028;28;20219;-72
2021/01/15 01:44:49;;;;;;;15.15;9.70;;;;;;;;;;5015768;28;20041;-72
2021/01/15 01:47:14;;;;;;;15.45;10.38;;;;;;;;;;5015689;28;20120;-71
2021/01/15 01:49:40;;;;;;;14.20;9.75;;;;;;;;;;5015662;28;20488;-72
2021/01/15 01:52:06;;;;;;;14.90;10.32;;;;;;;;;;5014546;28;20453;-72
2021/01/15 01:54:35;;;;;;;15.60;10.02;;;;;;;;;;5015784;28;20377;-71
2021/01/15 01:57:02;;;;;;;14.27;9.98;;;;;;;;;;5015516;28;20369;-72
2021/01/15 01:59:27;;;;;;;15.95;10.23;;;;;;;;;;5015422;28;20040;-72
2021/01/15 02:01:53;;;;;;;17.70;10.77;;;;;;;;;;5015362;28;20120;-71
2021/01/15 02:04:18;;;;;;;12.48;9.02;;;;;;;;;;5014342;28;20537;-72
2021/01/15 02:06:44;;;;;;;14.98;10.20;;;;;;;;;;5015648;28;20033;-72
2021/01/15 02:09:10;;;;;;;15.30;9.63;;;;;;;;;;5015626;28;20483;-72
2021/01/15 02:11:54;;;;;;;16.98;10.55;;;;;;;;;;5015329;28;20536;-72
2021/01/15 02:14:21;;;;;;;15.90;10.52;;;;;;;;;;5015157;28;20057;-72
2021/01/15 02:16:48;;;;;;;15.32;10.43;;;;;;;;;;5014183;28;20056;-72
2021/01/15 02:19:34;;;;;;;15.95;10.10;;;;;;;;;;5014974;28;20026;-72
2021/01/15 02:22:17;;;;;;;14.32;10.02;;;;;;;;;;5015534;28;20029;-72
2021/01/15 02:24:58;;;;;;;14.60;9.63;;;;;;;;;;5015282;28;20582;-72
2021/01/15 02:27:23;;;;;;;;;;;;;;;;;;5013901;28;20036;-73
2021/01/15 02:30:07;;;;;;;15.52;10.20;;;;;;;;;;5015207;28;19909;-74
2021/01/15 02:32:33;;;;;;;13.23;9.50;;;;;;;;;;5015145;28;20040;-73
2021/01/15 02:35:02;;;;;;;16.30;10.52;;;;;;;;;;5014953;28;20025;-71
2021/01/15 02:37:31;;;;;;;15.52;10.50;;;;;;;;;;5015323;28;20045;-71
2021/01/15 02:40:14;;;;;;;13.25;9.52;;;;;;;;;;5015069;28;20017;-70
2021/01/15 02:42:40;;;;;;;16.17;9.75;;;;;;;;;;5014875;28;20034;-70
2021/01/15 02:45:10;;;;;;;14.63;9.73;;;;;;;;;;5014697;28;20046;-70
2021/01/15 02:47:48;;;;;;;13.90;9.98;;;;;;;;;;5013522;28;20426;-70
2021/01/15 02:50:18;;;;;;;17.08;11.07;;;;;;;;;;5014768;28;20026;-70
2021/01/15 02:52:44;;;;;;;;;;;;;;;;;;5015392;28;20433;-70
2021/01/15 02:55:11;;;;;;;16.40;10.80;;;;;;;;;;5014583;28;19916;-70
2021/01/15 02:57:42;;;;;;;16.63;10.65;;;;;;;;;;5014508;28;20014;-70
2021/01/15 03:00:15;;;;;;;19.08;11.32;;;;;;;;;;5014617;28;20021;-69
2021/01/15 03:03:03;;;;;;;18.13;11.80;;;;;;;;;;5013600;28;20374;-70
2021/01/15 03:05:37;;;;;;;16.10;11.43;;;;;;;;;;5014699;28;20416;-70
2021/01/15 03:08:03;;;;;;;18.23;11.82;;;;;;;;;;5014633;28;20034;-69
2021/01/15 03:10:36;;;;;;;16.38;11.27;;;;;;;;;;5014300;28;20015;-69
2021/01/15 03:13:08;;;;;;;16.35;11.52;;;;;;;;;;5014475;28;20033;-69
2021/01/15 03:15:42;;;;;;;15.60;10.40;;;;;;;;;;5012474;28;20038;-69
2021/01/15 03:18:16;;;;;;;17.98;11.45;;;;;;;;;;5013784;28;20037;-69
2021/01/15 03:20:44;;;;;;;15.55;10.07;;;;;;;;;;5013978;28;20081;-70
2021/01/15 03:23:10;;;;;;;14.93;10.38;;;;;;;;;;5013038;28;20028;-70
2021/01/15 03:25:36;;;;;;;17.90;10.85;;;;;;;;;;5012788;28;20392;-70
2021/01/15 03:28:01;;;;;;;15.23;10.90;;;;;;;;;;5014124;28;20025;-70
2021/01/15 03:30:29;;;;;;;15.85;9.75;;;;;;;;;;5013079;28;20026;-70
2021/01/15 03:32:55;;;;;;;14.52;10.10;;;;;;;;;;5012865;28;20361;-70
2021/01/15 03:35:24;;;;;;;16.08;10.13;;;;;;;;;;5012791;28;20053;-69
2021/01/15 03:37:49;;;;;;;15.23;10.07;;;;;;;;;;5012701;28;20018;-69
2021/01/15 03:40:15;;;;;;;16.63;10.27;;;;;;;;;;5012554;28;20396;-69
2021/01/15 03:42:40;;;;;;;15.98;10.15;;;;;;;;;;5014030;28;20026;-70
2021/01/15 03:45:07;;;;;;;15.15;10.30;;;;;;;;;;5013798;28;20484;-70
2021/01/15 03:47:33;;;;;;;14.82;9.55;;;;;;;;;;5011161;28;20468;-70
2021/01/15 03:49:58;;;;;;;13.52;9.75;;;;;;;;;;5013946;28;20061;-69
2021/01/15 03:52:23;;;;;;;13.75;9.75;;;;;;;;;;5012792;28;20049;-69
2021/01/15 03:54:49;;;;;;;14.35;9.50;;;;;;;;;;5013708;28;20077;-69
2021/01/15 03:57:14;;;;;;;11.75;9.07;;;;;;;;;;5013514;28;20022;-70
2021/01/15 03:59:40;;;;;;;13.27;9.38;;;;;;;;;;5012373;28;20041;-70
2021/01/15 04:02:06;;;;;;;14.98;9.23;;;;;;;;;;5013002;28;20518;-70
2021/01/15 04:04:32;;;;;;;13.05;9.48;;;;;;;;;;5013537;28;20468;-69
2021/01/15 04:06:59;;;;;;;15.00;9.95;;;;;;;;;;5013480;28;20095;-69
2021/01/15 04:09:24;;;;;;;13.57;9.25;;;;;;;;;;5012017;28;20408;-69
2021/01/15 04:11:50;;;;;;;13.40;9.52;;;;;;;;;;5013518;28;20120;-71
2021/01/15 04:14:16;;;;;;;15.73;10.02;;;;;;;;;;5013574;28;20026;-71
2021/01/15 04:16:42;;;;;;;16.02;10.70;;;;;;;;;;5013232;28;20141;-71
2021/01/15 04:19:07;;;;;;;15.35;10.43;;;;;;;;;;5012194;28;20042;-70
2021/01/15 04:21:33;;;;;;;15.55;10.18;;;;;;;;;;5012266;28;20025;-70
2021/01/15 04:23:58;;;;;;;14.20;9.75;;;;;;;;;;5013397;28;20106;-70
2021/01/15 04:26:24;;;;;;;14.43;10.20;;;;;;;;;;5013044;28;20026;-70
2021/01/15 04:28:49;;;;;;;13.77;9.50;;;;;;;;;;5017422;28;20120;-70
2021/01/15 04:31:24;;;;;;;17.27;10.43;;;;;;;;;;5017544;28;20033;-71
2021/01/15 04:33:49;;;;;;;13.73;9.98;;;;;;;;;;5017492;28;20049;-70
2021/01/15 04:36:14;;;;;;;12.70;9.77;;;;;;;;;;5017397;28;20034;-71
2021/01/15 04:38:41;;;;;;;12.70;9.35;;;;;;;;;;5017042;28;20030;-70
2021/01/15 04:41:06;;;;;;;15.13;9.50;;;;;;;;;;5016895;28;20025;-70
2021/01/15 04:43:34;;;;;;;15.65;9.50;;;;;;;;;;5016923;28;20030;-71
2021/01/15 04:46:01;;;;;;;12.55;9.13;;;;;;;;;;5015704;28;20092;-70
2021/01/15 04:48:29;;;;;;;14.30;9.73;;;;;;;;;;5017064;28;20081;-70
2021/01/15 04:51:08;;;;;;;11.98;9.57;;;;;;;;;;5016977;28;20036;-70
2021/01/15 04:53:38;;;;;;;16.40;10.45;;;;;;;;;;5015953;28;20041;-70
2021/01/15 04:56:03;;;;;;;15.38;9.65;;;;;;;;;;5016655;28;20034;-70
2021/01/15 04:58:32;;;;;;;15.88;9.70;;;;;;;;;;5016750;28;20030;-70
2021/01/15 05:00:58;;;;;;;17.27;10.65;;;;;;;;;;5016501;28;20029;-70
2021/01/15 05:03:25;;;;;;;15.75;11.18;;;;;;;;;;5016307;28;20406;-70
2021/01/15 05:05:58;;;;;;;13.80;10.27;;;;;;;;;;5016761;28;20088;-70
2021/01/15 05:08:28;;;;;;;14.80;9.95;;;;;;;;;;5016160;28;20082;-73
2021/01/15 05:10:56;;;;;;;13.63;9.55;;;;;;;;;;5016698;28;20034;-71
2021/01/15 05:13:22;;;;;;;14.80;9.50;;;;;;;;;;5016478;28;20052;-71
2021/01/15 05:15:51;;;;;;;11.95;9.05;;;;;;;;;;5016513;28;20515;-71
2021/01/15 05:18:18;;;;;;;15.07;10.70;;;;;;;;;;5016265;28;20030;-70
2021/01/15 05:20:44;;;;;;;42.30;23.60;;;;;;;;;;5016457;28;20018;-70
2021/01/15 05:23:10;;;;;;;164.57;63.35;;;;;;;;;;5016234;28;20054;-70
2021/01/15 05:25:46;;;;;;;91.90;37.97;;;;;;;;;;5016476;28;20496;-70
2021/01/15 05:28:15;;;;;;;186.55;78.15;;;;;;;;;;5016259;28;20480;-70
2021/01/15 05:30:42;;;;;;;282.27;123.38;;;;;;;;;;5015800;28;20022;-71
2021/01/15 05:33:12;;;;;;;162.43;70.82;;;;;;;;;;5015544;28;20042;-71
2021/01/15 05:35:40;;;;;;;41.15;21.77;;;;;;;;;;5015537;28;20065;-71
2021/01/15 05:38:06;;;;;;;216.60;97.72;;;;;;;;;;5015076;28;20032;-71
2021/01/15 05:40:39;;;;;;;227.48;105.32;;;;;;;;;;5016259;28;20014;-71
2021/01/15 05:43:06;;;;;;;65.65;31.52;;;;;;;;;;5015923;28;20029;-69
2021/01/15 05:45:31;;;;;;;241.63;109.82;;;;;;;;;;5015803;28;20020;-69
2021/01/15 05:47:57;;;;;;;234.65;107.00;;;;;;;;;;5015949;28;20384;-69
2021/01/15 05:50:36;;;;;;;203.77;99.43;;;;;;;;;;5015896;28;20014;-69
2021/01/15 05:53:02;;;;;;;94.25;47.47;;;;;;;;;;5015790;28;20407;-68
2021/01/15 05:55:27;;;;;;;223.00;98.57;;;;;;;;;;5015726;28;20021;-69
2021/01/15 05:57:53;;;;;;;150.43;73.05;;;;;;;;;;5015289;28;20096;-69
2021/01/15 06:00:27;;;;;;;68.57;35.55;;;;;;;;;;5015736;28;20472;-69
2021/01/15 06:02:53;;;;;;;116.88;53.53;;;;;;;;;;5014891;28;20038;-71
2021/01/15 06:05:21;;;;;;;202.05;90.03;;;;;;;;;;5015273;28;20117;-74
2021/01/15 06:07:52;;;;;;;121.47;62.75;;;;;;;;;;5015272;28;20026;-74
2021/01/15 06:10:18;;;;;;;48.63;28.73;;;;;;;;;;5015244;28;20030;-74
2021/01/15 06:12:43;;;;;;;49.45;33.80;;;;;;;;;;5015311;28;20457;-74
2021/01/15 06:15:09;;;;;;;23.02;15.65;;;;;;;;;;5015255;28;20026;-74
2021/01/15 06:17:37;;;;;;;16.90;12.75;;;;;;;;;;5015392;28;20026;-74
2021/01/15 06:20:04;;;;;;;14.57;11.93;;;;;;;;;;5015461;28;20480;-73
2021/01/15 06:22:36;;;;;;;18.63;12.98;;;;;;;;;;5015233;28;20014;-73
2021/01/15 06:25:20;;;;;;;13.30;10.32;;;;;;;;;;5013727;28;20030;-73
2021/01/15 06:27:46;;;;;;;15.48;11.77;;;;;;;;;;5014958;28;20018;-73
2021/01/15 06:30:13;;;;;;;16.80;12.57;;;;;;;;;;5014898;28;20733;-73
2021/01/15 06:32:39;;;;;;;24.55;16.70;;;;;;;;;;5014941;28;20049;-74
2021/01/15 06:35:05;;;;;;;39.92;25.20;;;;;;;;;;5014807;28;20469;-73
2021/01/15 06:37:34;;;;;;;30.70;20.42;;;;;;;;;;5015184;28;20398;-73
2021/01/15 06:40:06;;;;;;;18.10;13.50;;;;;;;;;;4997237;28;20073;-73
2021/01/15 06:42:42;;;;;;;42.47;26.60;;;;;;;;;;5014842;28;20385;-73
2021/01/15 06:45:13;;;;;;;35.47;21.13;;;;;;;;;;5014634;28;20484;-73
2021/01/15 06:47:42;;;;;;;30.42;18.33;;;;;;;;;;5014532;28;20022;-73
2021/01/15 06:50:12;;;;;;;26.58;16.73;;;;;;;;;;5012743;28;20448;-71
2021/01/15 06:52:41;;;;;;;23.75;15.85;;;;;;;;;;5014543;28;20041;-72
2021/01/15 06:55:13;;;;;;;20.10;13.40;;;;;;;;;;5014176;28;20022;-72
2021/01/15 06:57:44;;;;;;;18.75;13.93;;;;;;;;;;5014595;28;20041;-72
2021/01/15 07:00:20;;;;;;;;;;;;;;;;;;5013310;28;20045;-72
2021/01/15 07:02:57;;;;;;;17.15;13.13;;;;;;;;;;5029005;28;19921;-72
2021/01/15 07:05:25;;;;;;;12.30;9.98;;;;;;;;;;5014234;28;20113;-70
2021/01/15 07:07:54;;;;;;;17.08;12.77;;;;;;;;;;5013172;28;20084;-70
2021/01/15 07:10:21;;;;;;;19.50;13.63;;;;;;;;;;4996901;28;20026;-70
2021/01/15 07:12:56;;;;;;;43.50;32.97;;;;;;;;;;5014218;28;20022;-70
2021/01/15 07:15:26;;;;;;;14.35;11.38;;;;;;;;;;5012924;28;20422;-70
2021/01/15 07:17:58;;;;;;;19.95;15.40;;;;;;;;;;5014166;28;20030;-70
2021/01/15 07:20:32;;;;;;;13.05;10.50;;;;;;;;;;5013517;28;20037;-70
2021/01/15 07:23:07;;;;;;;13.55;11.85;;;;;;;;;;5013166;28;20412;-70
2021/01/15 07:25:33;;;;;;;13.52;10.25;;;;;;;;;;5014636;28;20056;-70
2021/01/15 07:27:58;;;;;;;31.20;22.98;;;;;;;;;;5014160;28;20409;-70
2021/01/15 07:30:29;;;;;;;19.15;12.40;;;;;;;;;;5013953;28;20033;-70
2021/01/15 07:32:55;;;;;;;16.23;11.38;;;;;;;;;;5013829;28;20025;-70
2021/01/15 07:35:22;;;;;;;18.17;12.40;;;;;;;;;;5013769;28;20026;-70
2021/01/15 07:38:11;;;;;;;15.85;11.57;;;;;;;;;;5013766;28;20477;-70
2021/01/15 07:40:37;;;;;;;16.08;11.02;;;;;;;;;;4996444;28;20034;-70
2021/01/15 07:43:03;;;;;;;16.77;11.80;;;;;;;;;;5013437;28;20033;-70
2021/01/15 07:45:32;;;;;;;18.48;13.75;;;;;;;;;;5012817;28;20022;-70
2021/01/15 07:48:01;;;;;;;19.40;13.20;;;;;;;;;;5014033;28;20110;-70
2021/01/15 07:50:28;;;;;;;19.73;12.95;;;;;;;;;;5013615;28;20066;-70
2021/01/15 07:53:19;;;;;;;19.40;12.35;;;;;;;;;;5013432;28;20022;-70
2021/01/15 07:55:49;;;;;;;23.40;14.07;;;;;;;;;;5009416;28;20046;-70
2021/01/15 07:58:20;;;;;;;15.33;10.27;;;;;;;;;;5012961;28;20040;-70
2021/01/15 08:00:46;;;;;;;15.02;10.18;;;;;;;;;;5013793;28;20779;-70
2021/01/15 08:03:17;;;;;;;14.05;10.30;;;;;;;;;;5017837;28;20057;-70
2021/01/15 08:05:44;;;;;;;440.38;241.63;;;;;;;;;;5019373;28;20029;-70
2021/01/15 08:08:10;;;;;;;92.05;65.28;;;;;;;;;;5019385;28;20025;-70
2021/01/15 08:10:44;;;;;;;110.18;77.65;;;;;;;;;;5019580;28;20038;-70
2021/01/15 08:13:32;;;;;;;184.18;132.40;;;;;;;;;;5018459;28;20079;-70
2021/01/15 08:15:58;;;;;;;734.70;540.53;;;;;;;;;;5018670;28;20105;-70
2021/01/15 08:18:24;;;;;;;53.72;44.90;;;;;;;;;;5018343;28;20088;-70
2021/01/15 08:20:54;;;;;;;54.47;48.53;;;;;;;;;;5020120;28;20526;-70
2021/01/15 08:23:21;;;;;;;35.65;23.52;;;;;;;;;;5018964;28;20036;-70
2021/01/15 08:25:51;;;;;;;99.80;59.92;;;;;;;;;;5019034;28;20100;-70
2021/01/15 08:28:19;;;;;;;73.65;42.40;;;;;;;;;;5019932;28;20033;-70
2021/01/15 08:31:11;;;;;;;71.05;34.28;;;;;;;;;;5019932;28;20050;-70
2021/01/15 08:33:38;;;;;;;85.78;46.97;;;;;;;;;;5017785;28;20042;-69
2021/01/15 08:36:04;;;;;;;34.40;19.15;;;;;;;;;;5019789;28;20022;-70
2021/01/15 08:38:33;;;;;;;32.85;18.83;;;;;;;;;;5019555;28;20103;-73
2021/01/15 08:40:59;;;;;;;44.22;21.63;;;;;;;;;;5019431;28;20044;-72
2021/01/15 08:43:26;;;;;;;28.88;15.93;;;;;;;;;;5018183;28;20464;-72
2021/01/15 08:45:53;;;;;;;31.05;22.88;;;;;;;;;;5019704;28;20427;-70
2021/01/15 08:48:22;;;;;;;21.55;14.40;;;;;;;;;;5009788;28;20456;-70
2021/01/15 08:50:49;;;;;;;22.77;13.38;;;;;;;;;;5037942;28;20021;-70
2021/01/15 08:53:18;;;;;;;26.83;15.02;;;;;;;;;;5039631;28;20199;-70
2021/01/15 08:55:46;;;;;;;15.48;11.60;;;;;;;;;;5039526;28;20108;-70
2021/01/15 08:58:12;;;;;;;22.15;11.77;;;;;;;;;;5039884;28;20033;-70
2021/01/15 09:00:38;;;;;;;30.73;14.80;;;;;;;;;;5039479;28;20079;-70
2021/01/15 09:03:04;;;;;;;36.13;18.50;;;;;;;;;;5039316;28;20045;-70
2021/01/15 09:05:31;;;;;;;21.33;13.75;;;;;;;;;;5040051;28;20026;-70
2021/01/15 09:07:59;;;;;;;19.65;12.38;;;;;;;;;;5039608;28;20075;-70
2021/01/15 09:10:24;;;;;;;16.77;11.88;;;;;;;;;;5038818;28;20036;-69
2021/01/15 09:12:50;;;;;;;17.83;12.23;;;;;;;;;;5036725;28;20460;-69
2021/01/15 09:15:19;;;;;;;29.42;17.90;;;;;;;;;;5036193;28;20040;-69
2021/01/15 09:17:45;;;;;;;19.42;12.13;;;;;;;;;;5036344;28;20071;-69
2021/01/15 09:20:13;;;;;;;17.00;13.02;;;;;;;;;;5035838;28;20456;-69
2021/01/15 09:22:40;;;;;;;18.35;11.60;;;;;;;;;;5036344;28;20457;-69
2021/01/15 09:25:07;;;;;;;19.98;12.15;;;;;;;;;;5036072;28;20028;-69
2021/01/15 09:27:32;;;;;;;19.27;12.40;;;;;;;;;;5036014;28;20025;-69
2021/01/15 09:30:00;;;;;;;22.42;12.30;;;;;;;;;;5036484;28;20067;-69
2021/01/15 09:32:25;;;;;;;18.70;11.50;;;;;;;;;;5035931;28;20112;-69
2021/01/15 09:34:51;;;;;;;19.33;11.90;;;;;;;;;;5035925;28;20117;-69
2021/01/15 09:37:17;;;;;;;17.08;11.10;;;;;;;;;;5035025;28;20080;-69
2021/01/15 09:39:44;;;;;;;17.67;11.65;;;;;;;;;;5035376;28;20041;-69
2021/01/15 09:42:12;;;;;;;16.75;11.02;;;;;;;;;;5035489;28;20036;-70
2021/01/15 09:44:37;;;;;;;13.43;10.05;;;;;;;;;;5035803;28;20479;-69
2021/01/15 09:47:05;;;;;;;15.80;10.43;;;;;;;;;;5035006;28;20029;-69
2021/01/15 09:49:31;;;;;;;13.27;9.68;;;;;;;;;;5034170;28;20014;-69
2021/01/15 09:51:57;;;;;;;13.00;9.15;;;;;;;;;;5034144;28;20026;-69
2021/01/15 09:54:22;;;;;;;12.35;8.32;;;;;;;;;;5035027;28;20021;-69
2021/01/15 09:56:48;;;;;;;17.15;10.10;;;;;;;;;;5034220;28;20485;-69
2021/01/15 09:59:15;;;;;;;18.40;11.48;;;;;;;;;;5034827;28;20516;-70
2021/01/15 10:01:41;;;;;;;18.35;11.23;;;;;;;;;;5034031;28;20069;-70
2021/01/15 10:04:06;;;;;;;21.77;12.93;;;;;;;;;;5035721;28;20115;-69
2021/01/15 10:06:37;;;;;;;17.35;11.48;;;;;;;;;;5035209;28;20029;-69
2021/01/15 10:09:02;;;;;;;14.55;9.95;;;;;;;;;;5033475;28;20598;-69
2021/01/15 10:11:29;;;;;;;16.65;10.57;;;;;;;;;;5034817;28;20108;-69
2021/01/15 10:13:56;;;;;;;14.43;9.77;;;;;;;;;;5034818;28;20033;-69
2021/01/15 10:16:21;;;;;;;20.50;11.90;;;;;;;;;;5035102;28;20525;-69
2021/01/15 10:18:47;;;;;;;19.38;12.20;;;;;;;;;;5035373;28;20128;-69
2021/01/15 10:21:13;;;;;;;20.33;11.80;;;;;;;;;;5034983;28;20026;-69
2021/01/15 10:23:39;;;;;;;26.83;15.93;;;;;;;;;;5033842;28;20018;-69
2021/01/15 10:26:05;;;;;;;34.00;16.92;;;;;;;;;;5032971;28;20014;-70
2021/01/15 10:28:31;;;;;;;15.52;10.05;;;;;;;;;;5034617;28;20542;-69
2021/01/15 10:30:56;;;;;;;18.67;10.85;;;;;;;;;;5033589;28;20030;-70
2021/01/15 10:33:22;;;;;;;19.45;10.73;;;;;;;;;;5034967;28;20133;-70
2021/01/15 10:35:50;;;;;;;26.45;15.75;;;;;;;;;;5033725;28;20026;-70
2021/01/15 10:38:15;;;;;;;11.55;7.70;;;;;;;;;;5034477;28;20040;-68
2021/01/15 10:40:42;;;;;;;9.32;6.45;;;;;;;;;;5034660;28;20466;-69
2021/01/15 10:43:08;;;;;;;8.18;6.50;;;;;;;;;;5034823;28;20075;-69
2021/01/15 10:45:34;;;;;;;30.80;16.13;;;;;;;;;;5034723;28;20029;-69
2021/01/15 10:48:02;;;;;;;11.25;7.25;;;;;;;;;;5034924;28;20026;-69
2021/01/15 10:50:27;;;;;;;9.73;6.53;;;;;;;;;;5034816;28;20021;-69
2021/01/15 10:52:53;;;;;;;7.97;6.18;;;;;;;;;;5034435;28;20033;-69
2021/01/15 10:55:19;;;;;;;8.50;5.65;;;;;;;;;;5034397;28;20075;-69
2021/01/15 10:57:46;;;;;;;20.38;7.32;;;;;;;;;;5034649;28;20040;-69
2021/01/15 11:00:13;;;;;;;11.18;6.45;;;;;;;;;;5034208;28;20035;-69
2021/01/15 11:02:40;;;;;;;8.30;6.30;;;;;;;;;;5033779;28;20033;-69
2021/01/15 11:05:07;;;;;;;8.95;5.93;;;;;;;;;;5034239;28;20026;-73
2021/01/15 11:07:32;;;;;;;6.85;5.35;;;;;;;;;;5034019;28;20022;-73
2021/01/15 11:09:58;;;;;;;13.30;7.75;;;;;;;;;;5033810;28;20105;-72
2021/01/15 11:12:24;;;;;;;10.57;7.45;;;;;;;;;;5032620;28;20025;-73
2021/01/15 11:14:49;;;;;;;10.48;6.25;;;;;;;;;;5033141;28;20022;-73
2021/01/15 11:17:15;;;;;;;9.48;6.45;;;;;;;;;;5033264;28;20091;-73
2021/01/15 11:19:40;;;;;;;10.68;6.88;;;;;;;;;;5033642;28;20025;-73
2021/01/15 11:22:06;;;;;;;9.93;6.72;;;;;;;;;;5033690;28;20025;-73
2021/01/15 11:24:31;;;;;;;8.32;6.63;;;;;;;;;;5033419;28;20025;-73
2021/01/15 11:26:58;;;;;;;8.35;6.05;;;;;;;;;;5033672;28;20044;-72
2021/01/15 11:29:23;;;;;;;5.18;4.40;;;;;;;;;;5033978;28;20013;-73
2021/01/15 11:31:49;;;;;;;4.13;3.38;;;;;;;;;;5032697;28;20029;-73
2021/01/15 11:34:16;;;;;;;5.90;4.10;;;;;;;;;;5033704;28;20075;-73
2021/01/15 11:36:44;;;;;;;6.53;4.72;;;;;;;;;;5033138;28;20074;-73
2021/01/15 11:39:10;;;;;;;7.85;5.82;;;;;;;;;;5032320;28;20037;-73
2021/01/15 11:41:36;;;;;;;11.55;6.88;;;;;;;;;;5033634;28;20026;-73
2021/01/15 11:44:02;;;;;;;12.48;8.27;;;;;;;;;;5033289;28;20066;-73
2021/01/15 11:46:27;;;;;;;22.17;11.07;;;;;;;;;;5033393;28;20032;-73
2021/01/15 11:48:53;;;;;;;23.63;12.65;;;;;;;;;;5033495;28;20444;-73
2021/01/15 11:51:18;;;;;;;21.77;13.52;;;;;;;;;;5033398;28;20030;-73
2021/01/15 11:53:45;;;;;;;27.85;13.95;;;;;;;;;;5033262;28;20554;-72
2021/01/15 11:56:11;;;;;;;26.63;13.13;;;;;;;;;;5033318;28;20029;-73
2021/01/15 11:58:37;;;;;;;18.98;11.55;;;;;;;;;;5031964;28;20032;-72
2021/01/15 12:01:05;;;;;;;21.25;12.10;;;;;;;;;;5032010;28;20486;-72
2021/01/15 12:03:31;;;;;;;22.15;12.57;;;;;;;;;;5031972;28;20071;-72
2021/01/15 12:05:56;;;;;;;19.38;11.77;;;;;;;;;;5033456;28;20523;-72
2021/01/15 12:08:23;;;;;;;20.45;11.60;;;;;;;;;;5033301;28;20022;-73
2021/01/15 12:10:50;;;;;;;21.38;12.25;;;;;;;;;;5033113;28;20082;-73
2021/01/15 12:13:16;;;;;;;22.70;12.25;;;;;;;;;;5032185;28;20025;-73
2021/01/15 12:15:48;;;;;;;22.80;12.85;;;;;;;;;;5032291;28;20029;-73
2021/01/15 12:18:14;;;;;;;33.63;15.30;;;;;;;;;;5032043;28;20044;-73
2021/01/15 12:20:40;;;;;;;47.25;19.85;;;;;;;;;;5031954;28;20022;-73
2021/01/15 12:23:08;;;;;;;27.75;14.90;;;;;;;;;;5032099;28;20030;-73
2021/01/15 12:25:39;;;;;;;73.32;36.03;;;;;;;;;;5033362;28;20018;-73
2021/01/15 12:28:04;;;;;;;;;;;;;;;;;;5015776;28;20025;-73
2021/01/15 12:30:30;;;;;;;23.00;12.82;;;;;;;;;;5033369;28;20300;-73
2021/01/15 12:32:55;;;;;;;24.80;12.70;;;;;;;;;;5033176;28;20030;-73
2021/01/15 12:35:21;;;;;;;32.42;17.50;;;;;;;;;;5032718;28;20017;-73
2021/01/15 12:37:46;;;;;;;29.25;14.43;;;;;;;;;;5031746;28;20030;-73
2021/01/15 12:40:12;;;;;;;26.05;13.18;;;;;;;;;;5033032;28;20116;-73
2021/01/15 12:42:39;;;;;;;24.83;14.00;;;;;;;;;;5032773;28;20079;-73
2021/01/15 12:45:05;;;;;;;20.27;11.98;;;;;;;;;;5031626;28;20368;-72
2021/01/15 12:47:31;;;;;;;26.77;15.00;;;;;;;;;;5034034;28;20407;-73
2021/01/15 12:49:56;;;;;;;23.42;11.93;;;;;;;;;;5036478;28;20032;-73
2021/01/15 12:52:22;;;;;;;20.20;12.02;;;;;;;;;;5036958;28;20033;-73
2021/01/15 12:54:47;;;;;;;19.65;11.40;;;;;;;;;;5036436;28;20028;-73
2021/01/15 12:57:13;;;;;;;17.73;9.07;;;;;;;;;;5035369;28;20033;-73
2021/01/15 12:59:40;;;;;;;15.23;9.25;;;;;;;;;;5035148;28;20025;-73
2021/01/15 13:02:09;;;;;;;15.63;9.35;;;;;;;;;;5033698;28;20033;-73
2021/01/15 13:04:34;;;;;;;19.70;10.98;;;;;;;;;;5036031;28;20026;-73
2021/01/15 13:07:00;;;;;;;17.20;9.70;;;;;;;;;;5036191;28;20029;-73
2021/01/15 13:09:34;;;;;;;16.52;9.98;;;;;;;;;;5035184;28;20082;-73
2021/01/15 13:12:03;;;;;;;16.70;9.70;;;;;;;;;;5036698;28;20041;-73
2021/01/15 13:14:29;;;;;;;19.25;10.73;;;;;;;;;;5035371;28;20025;-73
2021/01/15 13:16:55;;;;;;;20.92;11.18;;;;;;;;;;5036010;28;20369;-73
2021/01/15 13:19:22;;;;;;;23.05;11.65;;;;;;;;;;5036089;28;20018;-73
2021/01/15 13:21:49;;;;;;;22.30;11.60;;;;;;;;;;5034969;28;20037;-73
2021/01/15 13:24:14;;;;;;;25.73;13.30;;;;;;;;;;5036143;28;20029;-73
2021/01/15 13:26:43;;;;;;;25.17;12.80;;;;;;;;;;5034379;28;20022;-73
2021/01/15 13:29:08;;;;;;;27.10;12.73;;;;;;;;;;5034861;28;20025;-73
2021/01/15 13:31:34;;;;;;;22.02;11.80;;;;;;;;;;5036068;28;20025;-73
2021/01/15 13:34:00;;;;;;;23.30;11.70;;;;;;;;;;5035830;28;20017;-73
2021/01/15 13:36:26;;;;;;;21.67;12.15;;;;;;;;;;5034696;28;20067;-70
2021/01/15 13:38:52;;;;;;;26.20;13.00;;;;;;;;;;5035453;28;20029;-70
2021/01/15 13:41:17;;;;;;;28.58;14.20;;;;;;;;;;5033834;28;20033;-73
2021/01/15 13:43:43;;;;;;;29.73;14.77;;;;;;;;;;5035146;28;20030;-73
2021/01/15 13:46:09;;;;;;;27.73;13.18;;;;;;;;;;5035297;28;20075;-72
2021/01/15 13:48:37;;;;;;;25.45;12.88;;;;;;;;;;5035757;28;20025;-73
2021/01/15 13:51:14;;;;;;;28.30;13.10;;;;;;;;;;5034928;28;20507;-72
2021/01/15 13:53:40;;;;;;;27.67;13.52;;;;;;;;;;5035183;28;20511;-73
2021/01/15 13:56:08;;;;;;;25.83;13.38;;;;;;;;;;5033434;28;20055;-73
2021/01/15 13:58:34;;;;;;;25.55;13.82;;;;;;;;;;5033841;28;20033;-73
2021/01/15 14:00:59;;;;;;;23.70;13.45;;;;;;;;;;5033258;28;20021;-72
2021/01/15 14:03:25;;;;;;;29.42;13.93;;;;;;;;;;5034126;28;20041;-69
2021/01/15 14:05:53;;;;;;;22.60;13.20;;;;;;;;;;5034526;28;20029;-69
2021/01/15 14:08:19;;;;;;;24.27;13.65;;;;;;;;;;5034763;28;20074;-69
2021/01/15 14:10:45;;;;;;;27.92;14.85;;;;;;;;;;5034963;28;20036;-69
2021/01/15 14:13:11;;;;;;;29.55;14.98;;;;;;;;;;5034563;28;20025;-69
2021/01/15 14:15:37;;;;;;;30.80;15.18;;;;;;;;;;5035485;28;20014;-69
2021/01/15 14:18:04;;;;;;;30.30;14.38;;;;;;;;;;5035433;28;20507;-69
2021/01/15 14:20:29;;;;;;;31.48;15.93;;;;;;;;;;5033139;28;20017;-69
2021/01/15 14:22:57;;;;;;;42.67;18.90;;;;;;;;;;5033865;28;20032;-70
2021/01/15 14:25:23;;;;;;;56.30;23.25;;;;;;;;;;5033671;28;20041;-69
2021/01/15 14:27:50;;;;;;;72.97;29.00;;;;;;;;;;5034804;28;20021;-69